createdAt,value
2023-02-28T00:03:09.766Z,0.60
2023-02-28T00:08:12.921Z,0.60
2023-02-28T00:13:15.400Z,0.60
2023-02-28T00:18:17.739Z,0.50
2023-02-28T00:23:20.171Z,0.40
2023-02-28T00:28:23.536Z,0.30
2023-02-28T00:33:25.885Z,0.30
2023-02-28T00:38:30.269Z,0.20
2023-02-28T00:43:38.338Z,0.20
2023-02-28T00:48:40.736Z,0.20
2023-02-28T00:53:43.050Z,0.10
2023-02-28T00:58:45.413Z,0.10
2023-02-28T01:03:47.765Z,0.10
2023-02-28T01:08:50.836Z,0.00
2023-02-28T01:13:53.278Z,-0.10
2023-02-28T01:18:55.664Z,-0.10
2023-02-28T01:23:58.925Z,-0.20
2023-02-28T01:29:01.323Z,-0.30
2023-02-28T01:34:04.495Z,-0.40
2023-02-28T01:39:06.941Z,-0.50
2023-02-28T01:44:47.272Z,-0.60
2023-02-28T01:49:50.344Z,-0.70
2023-02-28T01:54:56.706Z,-0.90
2023-02-28T02:00:08.564Z,-0.90
2023-02-28T02:05:19.767Z,-1.10
2023-02-28T02:10:48.818Z,-1.10
2023-02-28T02:16:10.437Z,-1.30
2023-02-28T02:21:28.391Z,-1.30
2023-02-28T02:26:45.941Z,-1.30
2023-02-28T02:32:13.890Z,-1.40
2023-02-28T02:37:41.767Z,-1.40
2023-02-28T02:42:51.815Z,-1.50
2023-02-28T02:47:58.040Z,-1.40
2023-02-28T02:53:03.095Z,-1.50
2023-02-28T02:58:11.787Z,-1.40
2023-02-28T03:03:18.632Z,-1.60
2023-02-28T03:08:21.047Z,-1.60
2023-02-28T03:13:35.037Z,-1.60
2023-02-28T03:18:53.225Z,-1.60
2023-02-28T03:24:05.707Z,-1.70
2023-02-28T03:29:14.348Z,-1.70
2023-02-28T03:34:25.327Z,-1.80
2023-02-28T03:39:40.065Z,-1.80
2023-02-28T03:44:57.078Z,-1.90
2023-02-28T03:50:07.727Z,-1.90
2023-02-28T03:55:13.273Z,-2.00
2023-02-28T04:00:19.970Z,-2.10
2023-02-28T04:05:23.422Z,-2.10
2023-02-28T04:10:25.749Z,-2.10
2023-02-28T04:15:28.396Z,-2.10
2023-02-28T04:20:30.688Z,-2.10
2023-02-28T04:25:33.162Z,-2.20
2023-02-28T04:30:35.618Z,-2.20
2023-02-28T04:35:37.997Z,-2.20
2023-02-28T04:40:40.349Z,-2.30
2023-02-28T04:45:42.928Z,-2.30
2023-02-28T04:50:45.314Z,-2.30
2023-02-28T04:55:48.011Z,-2.30
2023-02-28T05:00:51.541Z,-2.40
2023-02-28T05:05:53.919Z,-2.40
2023-02-28T05:10:56.366Z,-2.40
2023-02-28T05:15:59.010Z,-2.50
2023-02-28T05:21:03.488Z,-2.50
2023-02-28T05:26:05.811Z,-2.60
2023-02-28T05:31:11.932Z,-2.60
2023-02-28T05:36:14.545Z,-2.70
2023-02-28T05:41:17.863Z,-2.70
2023-02-28T05:46:20.221Z,-2.70
2023-02-28T05:51:22.593Z,-2.70
2023-02-28T05:56:24.934Z,-2.70
2023-02-28T06:01:39.421Z,-2.70
2023-02-28T06:06:41.721Z,-2.70
2023-02-28T06:11:44.329Z,-2.70
2023-02-28T06:16:47.765Z,-2.70
2023-02-28T06:21:53.317Z,-2.70
2023-02-28T06:26:55.878Z,-2.60
2023-02-28T06:31:58.284Z,-2.40
2023-02-28T06:37:03.229Z,-2.40
2023-02-28T06:42:05.739Z,-2.30
2023-02-28T06:47:08.117Z,-2.20
2023-02-28T06:52:10.949Z,-2.00
2023-02-28T06:57:13.322Z,-1.60
2023-02-28T07:02:15.659Z,-1.50
2023-02-28T07:07:18.016Z,-1.40
2023-02-28T07:12:20.496Z,-1.30
2023-02-28T07:17:22.886Z,-1.30
2023-02-28T07:22:26.048Z,-1.10
2023-02-28T07:27:28.454Z,-1.00
2023-02-28T07:32:31.005Z,-0.70
2023-02-28T07:37:37.512Z,-0.60
2023-02-28T07:42:42.450Z,-0.50
2023-02-28T07:47:45.328Z,-0.20
2023-02-28T07:52:47.819Z,0.00
2023-02-28T07:57:50.287Z,0.30
2023-02-28T08:02:52.753Z,0.40
2023-02-28T08:07:55.669Z,0.70
2023-02-28T08:12:58.107Z,0.70
2023-02-28T08:18:01.119Z,1.10
2023-02-28T08:23:03.526Z,1.30
2023-02-28T08:28:06.011Z,1.50
2023-02-28T08:33:08.529Z,2.10
2023-02-28T08:38:11.013Z,1.80
2023-02-28T08:43:13.447Z,1.80
2023-02-28T08:48:16.727Z,2.00
2023-02-28T08:53:20.683Z,1.90
2023-02-28T08:58:23.116Z,2.20
2023-02-28T09:03:25.920Z,2.10
2023-02-28T09:08:31.547Z,2.30
2023-02-28T09:13:34.568Z,2.40
2023-02-28T09:18:40.945Z,2.60
2023-02-28T09:23:45.022Z,2.70
2023-02-28T09:28:47.815Z,3.00
2023-02-28T09:33:51.555Z,3.10
2023-02-28T09:38:54.231Z,3.20
2023-02-28T09:43:59.732Z,3.40
2023-02-28T09:49:08.991Z,3.30
2023-02-28T09:54:23.883Z,3.40
2023-02-28T09:59:48.080Z,3.50
2023-02-28T10:04:59.249Z,3.50
2023-02-28T10:10:06.063Z,3.50
2023-02-28T10:15:17.940Z,3.60
2023-02-28T10:20:23.234Z,3.80
2023-02-28T10:25:29.154Z,3.90
2023-02-28T10:30:31.883Z,3.80
2023-02-28T10:35:34.873Z,4.10
2023-02-28T10:40:37.397Z,3.60
2023-02-28T10:45:39.959Z,3.50
2023-02-28T10:50:48.229Z,3.60
2023-02-28T10:56:10.861Z,3.80
2023-02-28T11:01:20.509Z,3.90
2023-02-28T11:06:28.319Z,4.10
2023-02-28T11:11:42.175Z,4.20
2023-02-28T11:16:44.682Z,4.20
2023-02-28T11:21:56.731Z,4.40
2023-02-28T11:26:59.167Z,4.60
2023-02-28T11:32:06.806Z,4.60
2023-02-28T11:37:19.018Z,4.80
2023-02-28T11:43:08.714Z,4.80
2023-02-28T11:48:26.938Z,4.70
2023-02-28T11:53:50.651Z,4.60
2023-02-28T11:58:59.006Z,5.00
2023-02-28T12:04:16.572Z,5.20
2023-02-28T12:09:44.479Z,5.20
2023-02-28T12:15:02.210Z,5.10
2023-02-28T12:20:22.691Z,4.80
2023-02-28T12:25:50.222Z,5.00
2023-02-28T12:31:34.485Z,5.00
2023-02-28T12:36:38.678Z,5.10
2023-02-28T12:41:47.321Z,5.10
2023-02-28T12:46:55.858Z,4.90
2023-02-28T12:52:00.831Z,5.00
2023-02-28T12:57:14.025Z,5.00
2023-02-28T13:02:42.356Z,4.90
2023-02-28T13:07:50.904Z,5.30
2023-02-28T13:12:56.034Z,5.00
2023-02-28T13:18:00.272Z,5.20
2023-02-28T13:23:03.314Z,5.10
2023-02-28T13:28:12.027Z,5.20
2023-02-28T13:33:39.851Z,5.10
2023-02-28T13:38:50.660Z,5.10
2023-02-28T13:44:13.194Z,5.10
2023-02-28T13:49:25.826Z,5.30
2023-02-28T13:54:37.081Z,5.40
2023-02-28T13:59:48.074Z,5.40
2023-02-28T14:05:02.213Z,5.50
2023-02-28T14:10:16.781Z,5.40
2023-02-28T14:15:36.281Z,5.10
2023-02-28T14:20:43.182Z,5.00
2023-02-28T14:26:06.088Z,4.90
2023-02-28T14:31:20.409Z,4.90
2023-02-28T14:36:37.703Z,4.90
2023-02-28T14:41:42.084Z,4.70
2023-02-28T14:46:45.801Z,4.70
2023-02-28T14:52:02.855Z,4.70
2023-02-28T14:57:06.142Z,4.60
2023-02-28T15:02:18.932Z,4.40
2023-02-28T15:07:29.621Z,4.30
2023-02-28T15:12:31.981Z,4.30
2023-02-28T15:17:35.961Z,4.30
2023-02-28T15:22:39.694Z,4.20
2023-02-28T15:27:47.893Z,4.10
2023-02-28T15:33:24.205Z,4.00
2023-02-28T15:38:28.116Z,3.90
2023-02-28T15:43:33.121Z,3.70
2023-02-28T15:48:45.539Z,3.60
2023-02-28T15:54:03.006Z,3.40
2023-02-28T15:59:08.523Z,3.30
2023-02-28T16:04:16.084Z,3.20
2023-02-28T16:09:18.401Z,3.00
2023-02-28T16:14:28.515Z,2.90
2023-02-28T16:19:34.579Z,2.80
2023-02-28T16:24:37.839Z,2.50
2023-02-28T16:29:40.788Z,2.40
2023-02-28T16:34:46.220Z,2.30
2023-02-28T16:39:50.896Z,2.10
2023-02-28T16:44:54.325Z,2.00
2023-02-28T16:49:57.336Z,1.70
2023-02-28T16:55:01.179Z,1.60
2023-02-28T17:00:05.749Z,1.40
2023-02-28T17:05:09.582Z,1.20
2023-02-28T17:10:26.948Z,1.00
2023-02-28T17:15:29.543Z,0.90
2023-02-28T17:20:31.941Z,0.70
2023-02-28T17:25:34.269Z,0.50
2023-02-28T17:30:36.687Z,0.40
2023-02-28T17:35:39.268Z,0.20
2023-02-28T17:40:41.648Z,0.10
2023-02-28T17:45:44.026Z,0.00
2023-02-28T17:50:46.611Z,-0.10
2023-02-28T17:55:48.928Z,-0.20
2023-02-28T18:00:54.842Z,-0.20
2023-02-28T18:05:57.921Z,-0.20
2023-02-28T18:11:00.511Z,-0.30
2023-02-28T18:16:02.878Z,-0.50
2023-02-28T18:21:06.512Z,-0.50
2023-02-28T18:26:09.141Z,-0.60
2023-02-28T18:31:15.499Z,-0.80
2023-02-28T18:36:18.757Z,-0.80
2023-02-28T18:41:21.824Z,-0.90
2023-02-28T18:46:24.417Z,-1.00
2023-02-28T18:51:28.201Z,-1.00
2023-02-28T18:56:30.776Z,-1.10
2023-02-28T19:01:34.599Z,-1.10
2023-02-28T19:06:38.152Z,-0.90
2023-02-28T19:11:40.633Z,-1.20
2023-02-28T19:16:42.965Z,-1.20
2023-02-28T19:21:45.372Z,-1.30
2023-02-28T19:26:47.769Z,-1.30
2023-02-28T19:31:50.423Z,-1.30
2023-02-28T19:36:53.036Z,-1.40
2023-02-28T19:41:55.424Z,-1.50
2023-02-28T19:46:57.781Z,-1.50
2023-02-28T19:52:00.671Z,-1.60
2023-02-28T19:57:03.104Z,-1.60
2023-02-28T20:02:06.480Z,-1.60
2023-02-28T20:07:08.876Z,-1.70
2023-02-28T20:12:23.159Z,-1.70
2023-02-28T20:17:26.242Z,-1.80
2023-02-28T20:22:28.779Z,-1.90
2023-02-28T20:27:32.688Z,-1.90
2023-02-28T20:32:36.313Z,-2.00
2023-02-28T20:37:39.868Z,-2.20
2023-02-28T20:42:42.205Z,-2.30
2023-02-28T20:47:45.008Z,-2.30
2023-02-28T20:52:47.487Z,-2.20
2023-02-28T20:57:50.214Z,-2.30
2023-02-28T21:02:52.614Z,-2.30
2023-02-28T21:07:54.948Z,-2.40
2023-02-28T21:12:57.964Z,-2.40
2023-02-28T21:18:00.334Z,-2.40
2023-02-28T21:23:02.754Z,-2.40
2023-02-28T21:28:05.206Z,-2.40
2023-02-28T21:33:07.714Z,-2.50
2023-02-28T21:38:10.195Z,-2.50
2023-02-28T21:43:12.520Z,-2.70
2023-02-28T21:48:14.898Z,-2.60
2023-02-28T21:53:17.193Z,-2.60
2023-02-28T21:58:19.699Z,-2.80
2023-02-28T22:03:22.045Z,-2.80
2023-02-28T22:08:24.438Z,-2.90
2023-02-28T22:13:26.943Z,-2.90
2023-02-28T22:18:29.426Z,-2.90
2023-02-28T22:23:32.406Z,-2.90
2023-02-28T22:28:35.982Z,-2.90
2023-02-28T22:33:38.306Z,-3.00
2023-02-28T22:38:41.944Z,-3.40
2023-02-28T22:43:45.300Z,-3.10
2023-02-28T22:48:50.452Z,-3.20
2023-02-28T22:53:54.575Z,-3.30
2023-02-28T22:59:01.041Z,-3.30
2023-02-28T23:04:04.514Z,-3.30
2023-02-28T23:09:14.556Z,-3.20
2023-02-28T23:14:19.021Z,-3.30
2023-02-28T23:19:27.291Z,-3.30
2023-02-28T23:24:32.771Z,-3.30
2023-02-28T23:29:36.070Z,-3.30
2023-02-28T23:34:38.365Z,-3.40
2023-02-28T23:39:41.550Z,-3.40
2023-02-28T23:44:43.940Z,-3.40
2023-02-28T23:49:48.318Z,-3.40
2023-02-28T23:54:50.680Z,-3.40
2023-02-28T23:59:53.058Z,-3.50
